Time;durP1;ratioP1;P1;durP2;ratioP2;P2;SDS_P1;SDS_P2;PMS_P1;PMS_P2;Temp;Humidity;BMP_temperature;BMP_pressure;BME280_temperature;BME280_humidity;BME280_pressure;Samples;Min_cycle;Max_cycle;Signal;HPM_P1;HPM_P2
2021/08/07 00:00:48;;;;;;;2.38;1.02;;;17.20;99.90;;;;;;5072661;28;20043;-69
2021/08/07 00:03:15;;;;;;;2.95;1.15;;;17.20;99.90;;;;;;5072861;28;20039;-69
2021/08/07 00:05:42;;;;;;;2.78;1.20;;;17.10;99.90;;;;;;5072612;28;20024;-69
2021/08/07 00:08:08;;;;;;;3.42;1.20;;;17.20;99.90;;;;;;5072812;28;20032;-69
2021/08/07 00:10:33;;;;;;;2.20;1.13;;;17.20;99.90;;;;;;5071698;28;20028;-69
2021/08/07 00:13:00;;;;;;;1.83;0.98;;;17.20;99.90;;;;;;5071953;28;20064;-69
2021/08/07 00:15:27;;;;;;;4.35;1.42;;;17.10;99.90;;;;;;5072555;28;20044;-69
2021/08/07 00:17:53;;;;;;;1.85;1.00;;;17.20;99.90;;;;;;5072963;28;20523;-69
2021/08/07 00:20:18;;;;;;;2.47;1.08;;;17.00;99.90;;;;;;5071755;28;20037;-69
2021/08/07 00:22:44;;;;;;;1.77;0.93;;;17.00;99.90;;;;;;5072309;28;20032;-69
2021/08/07 00:25:11;;;;;;;3.40;1.30;;;17.00;99.90;;;;;;5072554;28;20527;-69
2021/08/07 00:27:36;;;;;;;4.05;1.30;;;17.00;99.90;;;;;;5072296;28;20033;-69
2021/08/07 00:30:05;;;;;;;3.97;1.23;;;16.90;99.90;;;;;;5072526;28;20130;-69
2021/08/07 00:32:31;;;;;;;2.35;1.13;;;16.90;99.90;;;;;;5072532;28;20473;-69
2021/08/07 00:34:57;;;;;;;1.60;0.98;;;16.90;99.90;;;;;;5071097;28;20043;-69
2021/08/07 00:37:25;;;;;;;6.80;1.10;;;16.90;99.90;;;;;;5072486;28;20040;-69
2021/08/07 00:39:51;;;;;;;1.85;0.95;;;16.90;99.90;;;;;;5073507;28;20040;-69
2021/08/07 00:42:17;;;;;;;2.47;1.13;;;16.90;99.90;;;;;;5072215;28;20021;-69
2021/08/07 00:44:42;;;;;;;4.00;0.98;;;17.00;99.90;;;;;;5071188;28;20024;-69
2021/08/07 00:47:08;;;;;;;3.97;1.42;;;17.00;99.90;;;;;;5072433;28;20055;-69
2021/08/07 00:49:34;;;;;;;2.83;1.00;;;17.00;99.90;;;;;;5072069;28;20047;-69
2021/08/07 00:52:00;;;;;;;4.28;1.02;;;17.00;99.90;;;;;;5054012;28;20020;-69
2021/08/07 00:54:26;;;;;;;3.10;1.05;;;17.10;99.90;;;;;;5071128;28;20028;-69
2021/08/07 00:56:52;;;;;;;4.78;1.65;;;17.10;99.90;;;;;;5070611;28;20040;-69
2021/08/07 00:59:18;;;;;;;3.95;1.23;;;17.30;99.90;;;;;;5054330;28;20044;-69
2021/08/07 01:01:52;;;;;;;2.72;1.23;;;17.40;99.90;;;;;;5071851;28;20041;-69
2021/08/07 01:04:25;;;;;;;1.90;0.80;;;17.30;99.90;;;;;;5070930;28;20084;-69
2021/08/07 01:06:58;;;;;;;1.77;0.77;;;17.20;99.90;;;;;;5070849;28;20400;-69
2021/08/07 01:09:44;;;;;;;2.15;1.17;;;17.30;99.90;;;;;;5070696;28;20072;-69
2021/08/07 01:12:31;;;;;;;1.30;0.90;;;17.40;99.90;;;;;;5071859;28;20389;-69
2021/08/07 01:15:01;;;;;;;4.13;1.23;;;17.40;99.90;;;;;;5054496;28;20051;-69
2021/08/07 01:17:30;;;;;;;3.35;1.08;;;17.40;99.90;;;;;;5070694;28;20409;-69
2021/08/07 01:20:08;;;;;;;3.42;1.17;;;17.40;99.90;;;;;;5054248;28;20036;-69
2021/08/07 01:23:10;;;;;;;2.13;0.90;;;17.50;99.90;;;;;;5070493;28;20035;-70
2021/08/07 01:26:10;;;;;;;4.22;0.98;;;17.60;99.90;;;;;;5070459;28;20045;-69
2021/08/07 01:28:40;;;;;;;4.90;1.13;;;17.60;99.90;;;;;;5071698;28;20036;-69
2021/08/07 01:31:08;;;;;;;3.22;0.80;;;17.60;99.90;;;;;;5072151;28;20028;-70
2021/08/07 01:33:35;;;;;;;4.60;0.98;;;17.60;99.90;;;;;;5070238;28;20517;-69
2021/08/07 01:36:03;;;;;;;2.85;0.80;;;17.70;99.90;;;;;;5073457;28;20483;-69
2021/08/07 01:38:30;;;;;;;2.28;0.85;;;17.70;99.90;;;;;;5075731;28;20028;-70
2021/08/07 01:40:55;;;;;;;3.75;1.00;;;17.60;99.90;;;;;;5075933;28;20165;-69
2021/08/07 01:43:22;;;;;;;4.93;1.13;;;17.60;99.90;;;;;;5075612;28;20119;-69
2021/08/07 01:45:48;;;;;;;3.70;0.90;;;17.60;99.90;;;;;;5075663;28;20032;-69
2021/08/07 01:48:35;;;;;;;3.75;0.95;;;17.60;99.90;;;;;;5075524;28;20041;-69
2021/08/07 01:51:08;;;;;;;2.80;1.08;;;17.60;99.90;;;;;;5075800;28;20064;-69
2021/08/07 01:53:35;;;;;;;2.30;0.90;;;17.50;99.90;;;;;;5074243;28;20111;-69
2021/08/07 01:56:16;;;;;;;2.33;1.10;;;17.50;99.90;;;;;;5074559;28;20036;-69
2021/08/07 01:58:52;;;;;;;2.23;0.90;;;17.50;99.90;;;;;;5074403;28;20024;-69
2021/08/07 02:01:24;;;;;;;2.25;0.68;;;17.50;99.90;;;;;;5074076;28;20119;-69
2021/08/07 02:03:53;;;;;;;2.80;0.90;;;17.50;99.90;;;;;;5073959;28;20469;-70
2021/08/07 02:06:21;;;;;;;2.35;1.15;;;17.50;99.90;;;;;;5073911;28;20107;-69
2021/08/07 02:08:49;;;;;;;4.72;1.10;;;17.40;99.90;;;;;;5074112;28;20090;-69
2021/08/07 02:11:17;;;;;;;2.78;0.80;;;17.30;99.90;;;;;;5074281;28;20024;-70
2021/08/07 02:13:44;;;;;;;3.85;1.15;;;17.20;99.90;;;;;;5073624;28;20040;-69
2021/08/07 02:16:10;;;;;;;4.72;1.02;;;17.20;99.90;;;;;;5075305;28;20447;-70
2021/08/07 02:18:40;;;;;;;2.10;0.82;;;17.30;99.90;;;;;;5075009;28;20123;-70
2021/08/07 02:21:07;;;;;;;3.78;1.17;;;17.20;99.90;;;;;;5074968;28;20028;-69
2021/08/07 02:23:33;;;;;;;1.95;0.60;;;17.10;99.90;;;;;;5073608;28;20116;-70
2021/08/07 02:26:05;;;;;;;2.67;1.02;;;17.00;99.90;;;;;;5073523;28;20040;-70
2021/08/07 02:28:31;;;;;;;2.72;0.95;;;17.00;99.90;;;;;;5073699;28;20036;-70
2021/08/07 02:31:01;;;;;;;1.80;0.90;;;17.00;99.90;;;;;;5074962;28;20534;-70
2021/08/07 02:33:29;;;;;;;2.80;1.00;;;17.00;99.90;;;;;;5075353;28;20091;-70
2021/08/07 02:35:58;;;;;;;3.50;1.00;;;17.00;99.90;;;;;;5091328;28;20059;-70
2021/08/07 02:38:26;;;;;;;4.40;0.95;;;17.00;99.90;;;;;;5110779;28;20039;-70
2021/08/07 02:41:00;;;;;;;4.18;1.17;;;17.10;99.90;;;;;;5094888;28;20496;-70
2021/08/07 02:43:26;;;;;;;1.85;1.00;;;17.10;99.90;;;;;;5093578;28;20032;-70
2021/08/07 02:45:53;;;;;;;1.13;0.80;;;17.10;99.90;;;;;;5093174;28;20105;-70
2021/08/07 02:48:21;;;;;;;2.40;1.13;;;17.10;99.90;;;;;;5093442;28;20492;-70
2021/08/07 02:50:47;;;;;;;4.25;0.77;;;17.10;99.90;;;;;;5093300;28;20116;-70
2021/08/07 02:53:14;;;;;;;2.55;1.10;;;17.10;99.90;;;;;;5093846;28;20042;-70
2021/08/07 02:55:41;;;;;;;4.13;1.25;;;17.00;99.90;;;;;;5093121;28;20058;-70
2021/08/07 02:58:08;;;;;;;2.53;0.80;;;17.00;99.90;;;;;;5093494;28;20028;-70
2021/08/07 03:00:36;;;;;;;3.25;1.00;;;17.00;99.90;;;;;;5093156;28;20492;-70
2021/08/07 03:03:02;;;;;;;3.45;1.00;;;17.00;99.90;;;;;;5094284;28;20085;-70
2021/08/07 03:05:28;;;;;;;2.40;0.80;;;17.10;99.90;;;;;;5093387;28;20036;-70
2021/08/07 03:07:54;;;;;;;3.47;1.00;;;17.30;99.90;;;;;;5094129;28;20036;-70
2021/08/07 03:10:20;;;;;;;3.40;0.88;;;17.40;99.90;;;;;;5094447;28;20036;-70
2021/08/07 03:12:47;;;;;;;3.13;0.93;;;17.50;99.90;;;;;;5094203;28;20036;-70
2021/08/07 03:15:13;;;;;;;4.10;1.00;;;17.50;99.90;;;;;;5093937;28;20080;-70
2021/08/07 03:17:40;;;;;;;3.80;0.98;;;17.40;99.90;;;;;;5092787;28;20047;-70
2021/08/07 03:20:07;;;;;;;2.85;1.20;;;17.40;99.90;;;;;;5093119;28;20057;-70
2021/08/07 03:22:34;;;;;;;2.30;0.90;;;17.40;99.90;;;;;;5093875;28;20047;-70
2021/08/07 03:25:00;;;;;;;1.33;0.52;;;17.40;99.90;;;;;;5093929;28;20512;-70
2021/08/07 03:27:26;;;;;;;4.85;0.77;;;17.40;99.90;;;;;;5094232;28;20029;-70
2021/08/07 03:29:52;;;;;;;3.22;0.85;;;17.20;99.90;;;;;;5093993;28;20032;-69
2021/08/07 03:32:18;;;;;;;6.68;0.80;;;17.10;99.90;;;;;;5094178;28;20107;-69
2021/08/07 03:34:44;;;;;;;4.05;1.00;;;17.20;99.90;;;;;;5092270;28;20693;-70
2021/08/07 03:37:10;;;;;;;3.20;1.02;;;17.20;99.90;;;;;;5092591;28;20059;-69
2021/08/07 03:39:36;;;;;;;3.95;1.00;;;17.30;99.90;;;;;;5093951;28;20028;-69
2021/08/07 03:42:02;;;;;;;3.70;0.88;;;17.30;99.90;;;;;;5093738;28;20071;-70
2021/08/07 03:44:28;;;;;;;3.88;0.90;;;17.30;99.90;;;;;;5093586;28;20523;-70
2021/08/07 03:46:54;;;;;;;2.60;1.02;;;17.40;99.90;;;;;;5093327;28;20385;-70
2021/08/07 03:49:20;;;;;;;2.55;0.80;;;17.30;99.90;;;;;;5093484;28;20040;-70
2021/08/07 03:51:46;;;;;;;1.13;0.60;;;17.40;99.90;;;;;;5093240;28;20098;-70
2021/08/07 03:54:11;;;;;;;3.63;1.00;;;17.40;99.90;;;;;;5093544;28;20511;-70
2021/08/07 03:56:37;;;;;;;4.82;1.60;;;17.30;99.90;;;;;;5075234;28;20028;-70
2021/08/07 03:59:03;;;;;;;3.17;1.23;;;17.10;99.90;;;;;;5092476;28;20028;-70
2021/08/07 04:01:29;;;;;;;2.80;1.00;;;17.20;99.90;;;;;;5093492;28;20039;-70
2021/08/07 04:03:54;;;;;;;2.85;0.90;;;17.00;99.90;;;;;;5091789;28;20040;-70
2021/08/07 04:06:20;;;;;;;2.97;1.02;;;17.00;99.90;;;;;;5093150;28;20028;-70
2021/08/07 04:08:46;;;;;;;1.65;0.70;;;17.00;99.90;;;;;;5093329;28;20111;-69
2021/08/07 04:11:12;;;;;;;3.95;0.90;;;16.90;99.90;;;;;;5092012;28;20059;-69
2021/08/07 04:13:37;;;;;;;3.72;1.27;;;16.90;99.90;;;;;;5091732;28;20086;-70
2021/08/07 04:16:04;;;;;;;3.25;1.38;;;16.80;99.90;;;;;;5092604;28;20044;-69
2021/08/07 04:18:30;;;;;;;3.42;0.98;;;16.80;99.90;;;;;;5093156;28;20032;-69
2021/08/07 04:20:56;;;;;;;2.17;0.90;;;17.00;99.90;;;;;;5092876;28;20039;-69
2021/08/07 04:23:22;;;;;;;4.22;0.90;;;17.10;99.90;;;;;;5092877;28;20040;-69
2021/08/07 04:25:48;;;;;;;2.47;1.17;;;17.20;99.90;;;;;;5090081;28;20082;-69
2021/08/07 04:28:13;;;;;;;4.10;1.05;;;17.30;99.90;;;;;;5074532;28;20056;-69
2021/08/07 04:30:39;;;;;;;3.33;1.05;;;17.30;99.90;;;;;;5072442;28;20035;-69
2021/08/07 04:33:05;;;;;;;4.63;0.88;;;17.20;99.90;;;;;;5071226;28;20104;-70
2021/08/07 04:35:31;;;;;;;3.78;1.40;;;17.20;99.90;;;;;;5072565;28;20066;-69
2021/08/07 04:37:58;;;;;;;3.85;1.00;;;17.10;99.90;;;;;;5072097;28;20029;-69
2021/08/07 04:40:29;;;;;;;2.35;0.90;;;17.10;99.90;;;;;;5072248;28;20036;-69
2021/08/07 04:42:55;;;;;;;;;;;17.00;99.90;;;;;;5071978;28;20028;-70
2021/08/07 04:45:21;;;;;;;1.20;0.77;;;17.10;99.90;;;;;;5072464;28;19919;-69
2021/08/07 04:48:03;;;;;;;2.05;0.95;;;17.10;99.90;;;;;;5070827;28;20400;-69
2021/08/07 04:50:33;;;;;;;3.92;0.80;;;17.10;99.90;;;;;;5072171;28;20409;-69
2021/08/07 04:53:00;;;;;;;3.55;1.00;;;17.10;99.90;;;;;;5070689;28;20051;-69
2021/08/07 04:55:27;;;;;;;4.68;1.00;;;17.10;99.90;;;;;;5070808;28;20094;-69
2021/08/07 04:57:53;;;;;;;2.60;1.10;;;17.10;99.90;;;;;;5071010;28;20056;-70
2021/08/07 05:00:20;;;;;;;5.05;1.10;;;17.20;99.90;;;;;;5071111;28;20134;-70
2021/08/07 05:02:46;;;;;;;4.00;0.85;;;17.20;99.90;;;;;;5072287;28;20035;-70
2021/08/07 05:05:14;;;;;;;4.68;0.88;;;17.30;99.90;;;;;;5071033;28;20028;-69
2021/08/07 05:07:40;;;;;;;1.83;1.02;;;17.30;99.90;;;;;;5054342;28;20093;-69
2021/08/07 05:10:09;;;;;;;1.75;0.80;;;17.30;99.90;;;;;;5071705;28;20371;-69
2021/08/07 05:12:35;;;;;;;1.92;0.95;;;17.30;99.90;;;;;;5072261;28;20025;-71
2021/08/07 05:15:01;;;;;;;2.20;1.27;;;17.20;99.90;;;;;;5070434;28;20052;-71
2021/08/07 05:17:27;;;;;;;3.60;1.10;;;17.20;99.90;;;;;;5072137;28;20037;-72
2021/08/07 05:19:54;;;;;;;2.15;0.82;;;17.30;99.90;;;;;;5070340;28;20035;-72
2021/08/07 05:22:22;;;;;;;1.30;0.80;;;17.40;99.90;;;;;;5070510;28;20477;-70
2021/08/07 05:24:48;;;;;;;1.52;0.90;;;17.40;99.90;;;;;;5069685;28;20497;-71
2021/08/07 05:27:14;;;;;;;1.98;0.95;;;17.30;99.90;;;;;;5054188;28;20028;-69
2021/08/07 05:29:40;;;;;;;2.97;1.00;;;17.40;99.90;;;;;;5071999;28;20032;-70
2021/08/07 05:32:05;;;;;;;1.90;0.88;;;17.40;99.90;;;;;;5070656;28;20028;-69
2021/08/07 05:34:31;;;;;;;4.00;0.98;;;17.30;99.90;;;;;;5071981;28;20047;-68
2021/08/07 05:36:57;;;;;;;2.20;0.93;;;17.30;99.90;;;;;;5071836;28;20029;-71
2021/08/07 05:39:23;;;;;;;4.53;1.00;;;17.40;99.90;;;;;;5070545;28;20074;-69
2021/08/07 05:41:49;;;;;;;4.72;1.23;;;17.40;99.90;;;;;;5071549;28;20064;-71
2021/08/07 05:44:15;;;;;;;3.45;0.95;;;17.40;99.90;;;;;;5070530;28;20029;-71
2021/08/07 05:46:40;;;;;;;3.35;1.05;;;17.40;99.90;;;;;;5071884;28;20032;-71
2021/08/07 05:49:06;;;;;;;3.15;0.90;;;17.30;99.90;;;;;;5071479;28;20119;-70
2021/08/07 05:51:35;;;;;;;2.50;0.93;;;17.30;99.90;;;;;;5071672;28;20127;-72
2021/08/07 05:54:02;;;;;;;3.15;1.00;;;17.30;99.90;;;;;;5069906;28;20463;-71
2021/08/07 05:56:28;;;;;;;2.72;1.00;;;17.30;99.90;;;;;;5070491;28;20040;-69
2021/08/07 05:58:57;;;;;;;2.92;1.10;;;17.50;99.90;;;;;;5070183;28;20439;-71
2021/08/07 06:01:24;;;;;;;5.95;1.55;;;17.70;99.90;;;;;;5070104;28;20037;-70
2021/08/07 06:03:49;;;;;;;3.38;1.10;;;17.80;99.90;;;;;;5070630;28;20074;-70
2021/08/07 06:06:15;;;;;;;2.75;0.93;;;18.00;99.90;;;;;;5070320;28;20116;-70
2021/08/07 06:08:41;;;;;;;2.00;0.88;;;18.00;99.90;;;;;;5071943;28;20047;-70
2021/08/07 06:11:07;;;;;;;1.58;0.90;;;18.00;99.90;;;;;;5070031;28;20025;-70
2021/08/07 06:13:33;;;;;;;1.30;0.70;;;18.00;99.90;;;;;;5071318;28;20111;-70
2021/08/07 06:15:58;;;;;;;4.43;0.88;;;17.90;99.90;;;;;;5070852;28;20049;-70
2021/08/07 06:18:24;;;;;;;3.70;0.98;;;18.10;99.90;;;;;;5071130;28;20039;-69
2021/08/07 06:20:50;;;;;;;2.28;0.77;;;18.30;99.90;;;;;;5071308;28;20029;-69
2021/08/07 06:23:17;;;;;;;1.83;0.88;;;18.10;99.90;;;;;;5089172;28;20031;-70
2021/08/07 06:25:44;;;;;;;2.85;1.10;;;18.20;99.90;;;;;;5094099;28;20431;-70
2021/08/07 06:28:10;;;;;;;3.80;1.60;;;18.30;99.90;;;;;;5093867;28;20032;-71
2021/08/07 06:30:37;;;;;;;2.60;1.10;;;18.30;99.90;;;;;;5094227;28;20036;-71
2021/08/07 06:33:03;;;;;;;9.02;1.42;;;18.30;99.90;;;;;;5095315;28;20032;-72
2021/08/07 06:35:29;;;;;;;3.88;1.05;;;18.40;99.90;;;;;;5094965;28;20058;-72
2021/08/07 06:37:54;;;;;;;5.40;1.23;;;18.60;99.90;;;;;;5094827;28;20028;-71
2021/08/07 06:40:21;;;;;;;2.30;1.00;;;18.80;99.90;;;;;;5095001;28;20032;-71
2021/08/07 06:42:47;;;;;;;3.92;1.10;;;18.90;99.90;;;;;;5095178;28;20035;-70
2021/08/07 06:45:13;;;;;;;4.07;0.98;;;19.00;99.90;;;;;;5093868;28;20032;-71
2021/08/07 06:47:39;;;;;;;4.63;1.33;;;19.10;99.90;;;;;;5076776;28;20032;-72
2021/08/07 06:50:06;;;;;;;4.47;1.50;;;19.10;99.90;;;;;;5093470;28;20075;-71
2021/08/07 06:52:34;;;;;;;4.55;1.15;;;19.10;99.90;;;;;;5094961;28;20024;-72
2021/08/07 06:55:01;;;;;;;5.45;0.93;;;19.10;99.90;;;;;;5076519;28;20063;-70
2021/08/07 06:57:26;;;;;;;2.83;0.90;;;19.20;99.90;;;;;;5093724;28;20119;-71
2021/08/07 06:59:52;;;;;;;4.47;1.00;;;19.30;99.90;;;;;;5093534;28;20529;-72
2021/08/07 07:02:19;;;;;;;3.20;1.20;;;19.10;99.90;;;;;;5093494;28;20028;-71
2021/08/07 07:04:45;;;;;;;2.28;1.10;;;19.10;99.90;;;;;;5094617;28;20039;-71
2021/08/07 07:07:11;;;;;;;3.63;1.25;;;19.00;99.90;;;;;;5094062;28;20553;-72
2021/08/07 07:09:37;;;;;;;3.58;1.63;;;19.10;99.90;;;;;;5094506;28;20115;-70
2021/08/07 07:12:04;;;;;;;3.10;1.10;;;19.30;99.90;;;;;;5094410;28;20079;-68
2021/08/07 07:14:29;;;;;;;4.15;1.45;;;19.30;99.90;;;;;;5094300;28;20059;-67
2021/08/07 07:16:55;;;;;;;5.00;1.23;;;19.30;99.90;;;;;;5092890;28;20028;-68
2021/08/07 07:19:21;;;;;;;2.55;1.30;;;19.40;99.90;;;;;;5092100;28;20028;-75
2021/08/07 07:21:47;;;;;;;2.58;1.10;;;19.50;99.90;;;;;;5092840;28;20035;-70
2021/08/07 07:24:13;;;;;;;2.70;0.77;;;19.50;99.90;;;;;;5093987;28;20032;-71
2021/08/07 07:26:38;;;;;;;2.15;1.00;;;19.60;99.90;;;;;;5093844;28;20036;-73
2021/08/07 07:29:04;;;;;;;4.82;1.05;;;19.60;99.90;;;;;;5093749;28;20036;-74
2021/08/07 07:31:30;;;;;;;2.92;1.20;;;19.70;99.90;;;;;;5092982;28;20044;-76
2021/08/07 07:33:59;;;;;;;2.30;1.00;;;19.70;99.90;;;;;;5092956;28;20060;-75
2021/08/07 07:36:25;;;;;;;2.50;1.30;;;19.80;99.90;;;;;;5093830;28;20067;-73
2021/08/07 07:38:51;;;;;;;4.50;1.30;;;19.60;99.90;;;;;;5094223;28;20112;-72
2021/08/07 07:41:17;;;;;;;3.78;1.23;;;19.70;99.90;;;;;;5093707;28;20111;-74
2021/08/07 07:43:43;;;;;;;2.60;1.00;;;19.80;99.90;;;;;;5092216;28;20115;-70
2021/08/07 07:46:09;;;;;;;2.63;1.10;;;19.80;99.90;;;;;;5093581;28;20066;-67
2021/08/07 07:48:35;;;;;;;6.70;1.80;;;19.90;99.90;;;;;;5092723;28;20032;-67
2021/08/07 07:51:01;;;;;;;6.88;1.10;;;20.00;99.90;;;;;;5092220;28;20039;-68
2021/08/07 07:53:27;;;;;;;4.07;1.38;;;19.80;99.90;;;;;;5093390;28;20032;-68
2021/08/07 07:55:53;;;;;;;2.13;1.02;;;20.00;99.90;;;;;;5092200;28;20067;-69
2021/08/07 07:58:18;;;;;;;2.67;0.93;;;20.10;99.90;;;;;;5093316;28;20055;-69
2021/08/07 08:00:44;;;;;;;3.20;1.15;;;20.10;99.90;;;;;;5093500;28;20081;-71
2021/08/07 08:03:10;;;;;;;4.05;1.38;;;20.20;99.90;;;;;;5092904;28;20028;-71
2021/08/07 08:05:36;;;;;;;2.58;1.27;;;20.10;99.90;;;;;;5093487;28;20024;-71
2021/08/07 08:08:02;;;;;;;2.53;1.00;;;20.20;99.90;;;;;;5092847;28;20485;-79
2021/08/07 08:10:28;;;;;;;3.28;1.00;;;20.20;99.90;;;;;;5092226;28;20127;-71
2021/08/07 08:12:55;;;;;;;4.47;1.48;;;20.10;99.90;;;;;;5091942;28;20031;-72
2021/08/07 08:15:21;;;;;;;2.08;1.02;;;20.10;99.90;;;;;;5091329;28;20051;-72
2021/08/07 08:17:47;;;;;;;3.72;0.95;;;20.40;99.90;;;;;;5093056;28;20400;-72
2021/08/07 08:20:14;;;;;;;2.00;1.08;;;20.50;99.90;;;;;;5086957;28;20036;-74
2021/08/07 08:22:40;;;;;;;2.50;0.98;;;20.20;99.90;;;;;;5091777;28;20440;-74
2021/08/07 08:25:10;;;;;;;8.77;1.40;;;20.30;99.90;;;;;;5092682;28;20024;-73
2021/08/07 08:27:37;;;;;;;3.58;1.20;;;20.50;99.90;;;;;;5087933;28;20024;-73
2021/08/07 08:30:06;;;;;;;2.80;1.05;;;20.70;99.90;;;;;;5088016;28;20496;-73
2021/08/07 08:32:33;;;;;;;3.20;1.02;;;20.90;99.90;;;;;;5075786;28;20078;-73
2021/08/07 08:34:58;;;;;;;2.80;1.08;;;20.90;99.90;;;;;;5074208;28;20499;-73
2021/08/07 08:37:24;;;;;;;3.53;1.10;;;20.80;99.90;;;;;;5072627;28;20040;-73
2021/08/07 08:39:51;;;;;;;4.15;1.10;;;20.90;99.90;;;;;;5071521;28;20045;-74
2021/08/07 08:42:20;;;;;;;3.38;1.08;;;20.90;99.90;;;;;;5072299;28;20389;-73
2021/08/07 08:44:46;;;;;;;5.07;1.10;;;20.90;99.90;;;;;;5071980;28;20033;-74
2021/08/07 08:47:14;;;;;;;4.70;1.25;;;20.60;99.90;;;;;;5072045;28;20036;-73
2021/08/07 08:49:40;;;;;;;5.75;1.05;;;20.90;99.90;;;;;;5076992;28;20024;-73
2021/08/07 08:52:07;;;;;;;4.00;1.02;;;21.10;99.90;;;;;;5091485;28;20051;-73
2021/08/07 08:54:33;;;;;;;4.80;0.98;;;21.30;99.90;;;;;;5091515;28;20032;-72
2021/08/07 08:56:59;;;;;;;7.38;1.73;;;21.50;99.90;;;;;;5092420;28;20040;-72
2021/08/07 08:59:24;;;;;;;4.15;1.15;;;21.50;99.90;;;;;;5092577;28;20090;-73
2021/08/07 09:01:51;;;;;;;4.07;1.15;;;21.40;99.90;;;;;;5091092;28;20057;-73
2021/08/07 09:04:18;;;;;;;5.28;1.52;;;21.60;99.90;;;;;;5092535;28;20141;-73
2021/08/07 09:06:44;;;;;;;4.40;1.30;;;21.50;99.90;;;;;;5091020;28;20541;-76
2021/08/07 09:09:12;;;;;;;5.80;1.20;;;21.70;99.90;;;;;;5092102;28;20130;-74
2021/08/07 09:11:49;;;;;;;3.33;1.00;;;21.60;99.90;;;;;;5092655;28;20074;-73
2021/08/07 09:14:23;;;;;;;4.97;1.55;;;21.80;99.90;;;;;;5090817;28;20036;-73
2021/08/07 09:17:01;;;;;;;3.90;0.90;;;21.90;99.90;;;;;;5091323;28;20099;-73
2021/08/07 09:19:52;;;;;;;3.03;1.13;;;22.10;99.90;;;;;;5090628;28;20024;-73
2021/08/07 09:22:33;;;;;;;6.68;1.23;;;21.80;99.90;;;;;;5081670;28;20051;-71
2021/08/07 09:25:16;;;;;;;2.65;0.93;;;22.00;99.90;;;;;;5091261;28;20071;-71
2021/08/07 09:27:48;;;;;;;2.47;0.95;;;22.50;99.90;;;;;;5087038;28;20129;-72
2021/08/07 09:30:17;;;;;;;2.63;1.02;;;22.70;99.90;;;;;;5108563;28;20036;-72
2021/08/07 09:32:51;;;;;;;3.20;1.02;;;22.70;99.90;;;;;;5090322;28;20081;-72
2021/08/07 09:35:21;;;;;;;5.40;0.88;;;23.00;99.90;;;;;;5090566;28;20044;-73
2021/08/07 09:38:11;;;;;;;2.93;1.00;;;23.30;99.90;;;;;;5073222;28;20032;-72
2021/08/07 09:41:06;;;;;;;4.97;1.13;;;23.40;99.90;;;;;;5091965;28;20036;-73
2021/08/07 09:43:49;;;;;;;2.75;0.80;;;23.50;99.90;;;;;;5091907;28;20278;-73
2021/08/07 09:46:17;;;;;;;3.47;0.88;;;23.10;99.90;;;;;;5091665;28;20123;-73
2021/08/07 09:48:50;;;;;;;4.03;1.63;;;23.10;99.90;;;;;;5091161;28;20054;-72
2021/08/07 09:51:33;;;;;;;3.42;1.10;;;23.20;99.90;;;;;;5074828;28;20032;-72
2021/08/07 09:54:12;;;;;;;2.35;0.90;;;23.40;99.90;;;;;;5092312;28;20491;-73
2021/08/07 09:56:45;;;;;;;2.38;0.70;;;23.30;99.90;;;;;;5107741;28;20043;-73
2021/08/07 09:59:11;;;;;;;2.05;0.85;;;23.40;99.90;;;;;;5096072;28;20484;-72
2021/08/07 10:01:37;;;;;;;6.50;1.38;;;23.40;99.90;;;;;;5094483;28;20028;-72
2021/08/07 10:04:12;;;;;;;5.82;1.77;;;23.70;99.90;;;;;;5095725;28;20032;-68
2021/08/07 10:06:40;;;;;;;3.65;0.98;;;23.60;99.90;;;;;;5095901;28;20032;-65
2021/08/07 10:09:08;;;;;;;2.35;0.90;;;23.90;99.90;;;;;;5095028;28;20036;-66
2021/08/07 10:11:35;;;;;;;3.80;1.10;;;24.10;99.90;;;;;;5095235;28;20040;-65
2021/08/07 10:14:02;;;;;;;4.20;1.00;;;24.20;99.70;;;;;;5111272;28;20039;-65
2021/08/07 10:16:32;;;;;;;4.95;1.00;;;23.80;99.90;;;;;;5095239;28;20032;-66
2021/08/07 10:18:59;;;;;;;7.95;1.23;;;23.40;99.90;;;;;;5095543;28;20609;-65
2021/08/07 10:21:25;;;;;;;2.00;0.93;;;23.50;99.90;;;;;;5110698;28;20044;-65
2021/08/07 10:23:53;;;;;;;7.47;1.00;;;23.50;99.90;;;;;;5110845;28;20080;-65
2021/08/07 10:26:24;;;;;;;5.43;1.67;;;23.40;99.90;;;;;;5095006;28;20411;-64
2021/08/07 10:28:58;;;;;;;3.03;1.08;;;23.50;99.90;;;;;;5094160;28;20097;-65
2021/08/07 10:31:27;;;;;;;3.03;0.82;;;23.40;99.90;;;;;;5093740;28;20396;-65
2021/08/07 10:33:59;;;;;;;2.92;0.93;;;23.30;99.90;;;;;;5094106;28;20507;-65
2021/08/07 10:36:26;;;;;;;4.35;0.98;;;23.20;99.90;;;;;;5095108;28;20485;-66
2021/08/07 10:38:54;;;;;;;5.28;1.20;;;23.10;99.90;;;;;;5095489;28;20591;-66
2021/08/07 10:41:21;;;;;;;4.50;1.10;;;23.20;99.90;;;;;;5093492;28;20122;-65
2021/08/07 10:43:52;;;;;;;2.08;0.93;;;23.30;99.90;;;;;;5093761;28;20030;-65
2021/08/07 10:46:19;;;;;;;2.38;1.00;;;23.30;99.90;;;;;;5095042;28;20530;-65
2021/08/07 10:48:51;;;;;;;3.20;1.10;;;22.90;99.90;;;;;;5093599;28;20046;-65
2021/08/07 10:51:23;;;;;;;3.15;1.10;;;22.60;99.90;;;;;;5094811;28;20070;-65
2021/08/07 10:54:17;;;;;;;5.45;1.10;;;22.70;99.90;;;;;;5094595;28;20392;-65
2021/08/07 10:56:44;;;;;;;2.63;1.10;;;22.80;99.90;;;;;;5094545;28;20096;-65
2021/08/07 10:59:09;;;;;;;3.00;1.00;;;22.80;99.90;;;;;;5076540;28;20035;-65
2021/08/07 11:01:43;;;;;;;3.38;0.90;;;22.80;99.90;;;;;;5094796;28;20036;-65
2021/08/07 11:04:20;;;;;;;2.20;0.80;;;22.90;99.90;;;;;;5094517;28;20028;-65
2021/08/07 11:06:49;;;;;;;4.68;1.13;;;22.90;99.90;;;;;;5094469;28;20499;-65
2021/08/07 11:09:19;;;;;;;4.93;1.67;;;22.90;99.90;;;;;;5092852;28;20515;-65
2021/08/07 11:11:47;;;;;;;3.40;1.30;;;22.90;99.90;;;;;;5094387;28;20618;-65
2021/08/07 11:14:21;;;;;;;3.97;1.20;;;22.80;99.90;;;;;;5093801;28;20044;-66
2021/08/07 11:17:02;;;;;;;6.05;1.00;;;22.80;99.90;;;;;;5094463;28;20028;-66
2021/08/07 11:19:49;;;;;;;;;;;22.70;99.90;;;;;;5094672;28;20389;-66
2021/08/07 11:22:32;;;;;;;5.03;1.13;;;22.60;99.90;;;;;;5094284;28;20049;-66
2021/08/07 11:25:19;;;;;;;6.40;1.63;;;22.60;99.90;;;;;;5093299;28;20115;-64
2021/08/07 11:30:36;;;;;;;2.75;1.08;;;22.60;99.90;;;;;;5093726;28;20058;-64
2021/08/07 11:33:02;;;;;;;7.30;1.65;;;22.50;99.90;;;;;;5094062;28;20161;-65
2021/08/07 11:35:31;;;;;;;5.00;1.08;;;22.50;99.90;;;;;;5093711;28;20039;-66
2021/08/07 11:38:05;;;;;;;3.75;0.98;;;22.60;99.90;;;;;;5093728;28;20480;-65
2021/08/07 11:40:53;;;;;;;2.90;1.30;;;22.60;99.90;;;;;;5092394;28;20036;-65
2021/08/07 11:43:28;;;;;;;2.35;0.98;;;22.60;99.90;;;;;;5093904;28;20047;-65
2021/08/07 11:46:00;;;;;;;4.55;0.93;;;22.60;99.90;;;;;;5094128;28;20115;-64
2021/08/07 11:48:32;;;;;;;1.83;0.80;;;22.60;99.90;;;;;;5093488;28;20028;-65
2021/08/07 11:51:02;;;;;;;2.20;1.00;;;22.50;99.90;;;;;;5092339;28;20039;-64
2021/08/07 11:53:28;;;;;;;3.20;0.80;;;22.50;99.90;;;;;;5093549;28;20028;-65
2021/08/07 11:56:05;;;;;;;4.63;1.10;;;22.50;99.90;;;;;;5093591;28;20082;-64
2021/08/07 11:58:40;;;;;;;5.70;1.13;;;22.40;99.90;;;;;;5093597;28;20028;-64
2021/08/07 12:01:06;;;;;;;2.53;1.00;;;22.30;99.90;;;;;;5093128;28;20039;-67
2021/08/07 12:03:48;;;;;;;4.15;1.50;;;22.30;99.90;;;;;;5093437;28;20068;-66
2021/08/07 12:06:20;;;;;;;6.15;1.20;;;22.20;99.90;;;;;;5092757;28;20118;-67
2021/08/07 12:08:48;;;;;;;3.83;1.20;;;22.20;99.90;;;;;;5092153;28;20035;-67
2021/08/07 12:11:16;;;;;;;2.83;1.30;;;22.20;99.90;;;;;;5092752;28;20381;-67
2021/08/07 12:13:51;;;;;;;5.05;1.48;;;22.20;99.90;;;;;;5092359;28;20036;-66
2021/08/07 12:16:20;;;;;;;4.38;1.35;;;22.20;99.90;;;;;;5093208;28;20087;-67
2021/08/07 12:18:56;;;;;;;3.30;1.15;;;22.20;99.90;;;;;;5092821;28;20112;-68
2021/08/07 12:21:38;;;;;;;3.17;1.00;;;22.30;99.90;;;;;;5108204;28;20032;-67
2021/08/07 12:24:14;;;;;;;4.10;1.42;;;22.20;99.90;;;;;;5108433;28;20038;-67
2021/08/07 12:26:49;;;;;;;3.38;1.00;;;22.20;99.90;;;;;;5093170;28;20053;-67
2021/08/07 12:29:22;;;;;;;2.72;1.13;;;22.20;99.90;;;;;;5108624;28;20035;-67
2021/08/07 12:31:54;;;;;;;3.45;1.25;;;22.20;99.90;;;;;;5083862;28;20031;-68
2021/08/07 12:34:25;;;;;;;3.55;0.95;;;22.20;99.90;;;;;;5072666;28;20032;-69
2021/08/07 12:37:16;;;;;;;;;;;22.20;99.90;;;;;;5071672;28;20035;-68
2021/08/07 12:39:53;;;;;;;3.63;1.10;;;22.20;99.90;;;;;;5072729;28;20369;-69
2021/08/07 12:42:23;;;;;;;5.60;1.13;;;22.10;99.90;;;;;;5076123;28;20046;-67
2021/08/07 12:45:15;;;;;;;5.47;1.30;;;22.20;99.90;;;;;;5091207;28;20028;-67
2021/08/07 12:47:42;;;;;;;5.47;1.33;;;22.20;99.90;;;;;;5090468;28;20055;-68
2021/08/07 12:50:15;;;;;;;3.90;1.00;;;22.20;99.90;;;;;;5092781;28;20372;-67
2021/08/07 12:52:56;;;;;;;3.67;1.20;;;22.10;99.90;;;;;;5092703;28;20067;-67
2021/08/07 12:55:28;;;;;;;2.97;0.95;;;22.00;99.90;;;;;;5092346;28;20550;-67
2021/08/07 12:58:12;;;;;;;2.00;0.82;;;21.80;99.90;;;;;;5091184;28;20052;-67
2021/08/07 13:00:37;;;;;;;4.15;2.05;;;21.80;99.90;;;;;;5090875;28;20032;-66